Time;durP1;ratioP1;P1;durP2;ratioP2;P2;SDS_P1;SDS_P2;PMS_P1;PMS_P2;Temp;Humidity;BMP_temperature;BMP_pressure;BME280_temperature;BME280_humidity;BME280_pressure;Samples;Min_cycle;Max_cycle;Signal;HPM_P1;HPM_P2
2024/03/19 00:01:28;;;;;;;23.80;13.90;;;;;;;5.07;100.00;101243.69;4985581;28;20714;-77
2024/03/19 00:03:56;;;;;;;30.03;14.60;;;;;;;5.24;100.00;101237.53;4986271;28;20182;-77
2024/03/19 00:06:24;;;;;;;25.97;13.80;;;;;;;6.04;100.00;101408.63;4973742;28;20480;-77
2024/03/19 00:08:50;;;;;;;20.00;15.40;;;;;;;4.25;100.00;101094.97;4985734;28;20432;-76
2024/03/19 00:11:15;;;;;;;26.33;16.13;;;;;;;5.39;100.00;101217.34;4984203;28;20543;-76
2024/03/19 00:13:46;;;;;;;20.20;14.63;;;;;;;4.51;100.00;101164.13;4986069;28;20214;-76
2024/03/19 00:16:16;;;;;;;17.33;14.70;;;;;;;5.28;100.00;101230.88;4967128;28;20197;-76
2024/03/19 00:18:42;;;;;;;39.63;15.70;;;;;;;4.96;100.00;101236.78;4987181;28;20431;-76
2024/03/19 00:21:09;;;;;;;26.80;15.60;;;;;;;4.86;100.00;101150.94;4984366;28;20472;-76
2024/03/19 00:23:35;;;;;;;19.97;16.50;;;;;;;5.33;100.00;101175.41;4987294;28;20431;-76
2024/03/19 00:26:01;;;;;;;30.70;16.50;;;;;;;6.30;100.00;101451.28;4985345;28;20441;-76
2024/03/19 00:28:26;;;;;;;55.40;16.60;;;;;;;5.16;100.00;101266.69;4986289;28;20182;-76
2024/03/19 00:30:54;;;;;;;46.50;16.80;;;;;;;4.92;100.00;101150.34;4982668;28;20190;-77
2024/03/19 00:33:20;;;;;;;26.60;16.60;;;;;;;6.27;100.00;101368.16;4983768;28;20192;-76
2024/03/19 00:35:45;;;;;;;22.83;17.57;;;;;;;5.44;100.00;101294.03;4970468;28;20425;-77
2024/03/19 00:38:11;;;;;;;27.60;17.63;;;;;;;6.19;100.00;101386.75;4989716;28;20247;-76
2024/03/19 00:40:38;;;;;;;31.67;17.23;;;;;;;6.21;100.00;101425.56;4984506;28;20550;-77
2024/03/19 00:43:04;;;;;;;30.60;16.97;;;;;;;4.92;100.00;101225.63;4964757;28;20206;-76
2024/03/19 00:45:30;;;;;;;57.33;19.50;;;;;;;5.74;100.00;101335.34;4988805;28;20421;-76
2024/03/19 00:47:58;;;;;;;33.30;18.53;;;;;;;4.69;100.00;101137.53;4989633;28;21202;-76
2024/03/19 00:50:23;;;;;;;20.87;18.20;;;;;;;6.19;100.00;101329.03;4986356;28;20190;-76
2024/03/19 00:52:49;;;;;;;22.40;18.30;;;;;;;5.29;100.00;101182.00;4983861;28;20445;-76
2024/03/19 00:55:14;;;;;;;33.70;18.90;;;;;;;6.31;100.00;101393.53;4988870;28;20697;-77
2024/03/19 00:57:40;;;;;;;31.80;19.87;;;;;;;4.95;100.00;101166.81;4988421;28;20593;-76
2024/03/19 01:00:11;;;;;;;26.67;19.50;;;;;;;5.30;100.00;101138.47;4988656;28;20631;-76
2024/03/19 01:02:44;;;;;;;27.60;19.50;;;;;;;5.55;100.00;101221.09;4988859;28;20202;-77
2024/03/19 01:05:13;;;;;;;41.40;20.93;;;;;;;6.14;100.00;101339.31;4974837;28;20757;-76
2024/03/19 01:07:41;;;;;;;26.93;21.70;;;;;;;6.37;100.00;101262.34;4986361;28;20432;-76
2024/03/19 01:10:08;;;;;;;30.80;20.90;;;;;;;4.79;100.00;101051.56;4989576;28;20421;-77
2024/03/19 01:12:40;;;;;;;23.17;18.80;;;;;;;6.70;100.00;101403.72;4987317;28;20448;-76
2024/03/19 01:15:06;;;;;;;25.90;21.53;;;;;;;5.53;100.00;101106.03;4986770;28;20503;-76
2024/03/19 01:17:35;;;;;;;29.37;18.47;;;;;;;6.44;100.00;101260.69;4989520;28;20433;-76
2024/03/19 01:20:00;;;;;;;28.50;22.57;;;;;;;5.05;100.00;101039.09;4966839;28;20441;-76
2024/03/19 01:22:26;;;;;;;26.30;22.13;;;;;;;6.53;100.00;101275.69;4988604;28;20476;-77
2024/03/19 01:24:52;;;;;;;26.80;23.23;;;;;;;6.05;100.00;101218.59;4988726;28;20653;-77
2024/03/19 01:27:19;;;;;;;33.80;21.43;;;;;;;4.66;100.00;100975.78;4986746;28;20445;-77
2024/03/19 01:29:45;;;;;;;31.50;22.73;;;;;;;5.70;100.00;101168.13;4986584;28;20252;-76
2024/03/19 01:32:10;;;;;;;30.10;22.10;;;;;;;7.18;100.00;101428.91;5001188;28;20476;-77
2024/03/19 01:34:36;;;;;;;28.53;23.20;;;;;;;5.84;100.00;101207.44;4970416;28;20185;-76
2024/03/19 01:37:01;;;;;;;46.93;23.33;;;;;;;6.13;100.00;101235.56;4989226;28;20189;-77
2024/03/19 01:39:27;;;;;;;32.87;21.67;;;;;;;6.01;100.00;101158.63;4986207;28;20200;-76
2024/03/19 01:41:54;;;;;;;27.90;22.27;;;;;;;5.59;100.00;101167.41;4974752;28;20218;-76
2024/03/19 01:44:20;;;;;;;36.20;24.57;;;;;;;6.56;100.00;101251.38;4988338;28;20185;-76
2024/03/19 01:46:46;;;;;;;27.03;22.57;;;;;;;5.72;100.00;101143.00;4985001;28;20501;-76
2024/03/19 01:49:13;;;;;;;28.57;23.37;;;;;;;5.15;100.00;101009.72;4986028;28;21025;-76
2024/03/19 01:51:40;;;;;;;29.53;22.63;;;;;;;6.21;100.00;101263.09;4984840;28;20441;-77
2024/03/19 01:54:06;;;;;;;28.37;22.60;;;;;;;6.89;100.00;101366.13;4986331;28;20439;-76
2024/03/19 01:56:34;;;;;;;29.97;22.30;;;;;;;6.73;100.00;101360.75;4985924;28;20424;-76
2024/03/19 01:58:59;;;;;;;31.57;22.60;;;;;;;5.85;100.00;101178.03;4988092;28;20433;-76
2024/03/19 02:01:25;;;;;;;33.00;22.70;;;;;;;5.41;100.00;101127.56;4986557;28;20460;-76
2024/03/19 02:03:51;;;;;;;48.37;23.47;;;;;;;4.94;100.00;101012.78;4970536;28;20812;-77
2024/03/19 02:06:17;;;;;;;65.27;23.60;;;;;;;5.07;100.00;101092.97;4986229;28;20305;-76
2024/03/19 02:09:17;;;;;;;37.37;24.50;;;;;;;6.76;100.00;101353.25;4984925;28;20530;-76
2024/03/19 02:11:43;;;;;;;31.37;22.37;;;;;;;6.29;100.00;101256.97;4985893;28;20543;-76
2024/03/19 02:14:09;;;;;;;29.23;22.50;;;;;;;5.44;100.00;101110.47;4984283;28;20433;-76
2024/03/19 02:16:35;;;;;;;33.90;24.00;;;;;;;5.05;100.00;100955.84;4983422;28;20954;-76
2024/03/19 02:19:04;;;;;;;37.40;22.37;;;;;;;6.46;100.00;101191.25;4965983;28;20185;-76
2024/03/19 02:21:30;;;;;;;57.07;21.23;;;;;;;5.34;100.00;101078.66;4987186;28;20297;-76
2024/03/19 02:23:56;;;;;;;29.17;22.27;;;;;;;5.66;100.00;101117.88;4988002;28;20511;-76
2024/03/19 02:26:26;;;;;;;32.60;22.37;;;;;;;5.68;100.00;101087.63;4983685;28;20436;-76
2024/03/19 02:28:52;;;;;;;39.67;22.80;;;;;;;5.10;100.00;101030.66;4985488;28;20433;-76
2024/03/19 02:31:22;;;;;;;34.53;22.63;;;;;;;5.83;100.00;101176.50;4986636;28;20457;-76
2024/03/19 02:33:47;;;;;;;31.47;23.77;;;;;;;6.74;100.00;101210.44;4983408;28;20935;-76
2024/03/19 02:36:15;;;;;;;39.13;22.90;;;;;;;5.66;100.00;101117.03;4985286;28;20452;-76
2024/03/19 02:38:41;;;;;;;34.27;22.53;;;;;;;5.39;100.00;100971.78;4981097;28;20240;-76
2024/03/19 02:41:08;;;;;;;28.17;22.20;;;;;;;5.15;100.00;100996.44;4985256;28;20464;-76
2024/03/19 02:43:34;;;;;;;29.90;21.93;;;;;;;5.00;100.00;100977.59;4968938;28;20240;-76
2024/03/19 02:46:00;;;;;;;31.50;23.57;;;;;;;5.37;100.00;100925.88;4982653;28;20825;-76
2024/03/19 02:48:25;;;;;;;31.33;23.13;;;;;;;4.99;100.00;100920.09;4987299;28;20468;-76
2024/03/19 02:50:50;;;;;;;32.03;23.50;;;;;;;5.40;100.00;100998.19;4968655;28;20186;-76
2024/03/19 02:53:18;;;;;;;31.20;22.83;;;;;;;5.16;100.00;100928.97;4985212;28;20260;-76
2024/03/19 02:55:47;;;;;;;36.83;24.60;;;;;;;4.98;100.00;100793.50;4985876;28;20213;-76
2024/03/19 02:58:12;;;;;;;38.33;24.13;;;;;;;5.35;100.00;100906.56;4986084;28;20432;-76
2024/03/19 03:00:38;;;;;;;41.10;27.00;;;;;;;7.24;100.00;101218.31;4986958;28;20495;-76
2024/03/19 03:03:04;;;;;;;47.27;25.67;;;;;;;5.60;100.00;100923.44;4985654;28;20213;-76
2024/03/19 03:05:30;;;;;;;45.13;25.57;;;;;;;5.90;100.00;101049.72;4988462;28;20264;-76
2024/03/19 03:07:57;;;;;;;59.57;27.23;;;;;;;5.33;100.00;100861.53;4985534;28;20456;-76
2024/03/19 03:10:23;;;;;;;34.13;25.70;;;;;;;5.05;100.00;100759.13;4985627;28;21118;-76
2024/03/19 03:12:50;;;;;;;39.03;26.90;;;;;;;5.17;100.00;100896.06;4984699;28;21526;-76
2024/03/19 03:15:15;;;;;;;52.73;27.17;;;;;;;5.57;100.00;100995.59;4983519;28;20436;-76
2024/03/19 03:17:46;;;;;;;46.33;27.20;;;;;;;5.33;100.00;100916.56;4986503;28;20213;-76
2024/03/19 03:20:11;;;;;;;39.83;26.27;;;;;;;5.79;100.00;100883.19;4986590;28;20185;-76
2024/03/19 03:22:40;;;;;;;35.70;26.90;;;;;;;5.31;100.00;100830.78;4984655;28;20523;-76
2024/03/19 03:25:11;;;;;;;40.73;27.67;;;;;;;4.86;100.00;100793.00;4985893;28;20270;-76
2024/03/19 03:27:42;;;;;;;37.47;28.30;;;;;;;5.24;100.00;100797.88;4967437;28;20922;-76
2024/03/19 03:30:10;;;;;;;35.90;25.97;;;;;;;5.29;100.00;100835.41;4985772;28;20443;-76
2024/03/19 03:32:37;;;;;;;37.13;27.23;;;;;;;6.45;100.00;100997.69;4985505;28;20455;-76
2024/03/19 03:35:07;;;;;;;34.60;26.13;;;;;;;6.50;100.00;101046.84;4987287;28;20468;-76
2024/03/19 03:37:34;;;;;;;35.53;26.67;;;;;;;5.49;100.00;100921.91;4986401;28;21166;-76
2024/03/19 03:40:00;;;;;;;36.17;25.70;;;;;;;5.65;100.00;100956.53;4986684;28;20431;-76
2024/03/19 03:42:28;;;;;;;38.67;27.33;;;;;;;6.47;100.00;101078.31;4987053;28;20468;-76
2024/03/19 03:44:56;;;;;;;34.53;24.80;;;;;;;5.15;100.00;100933.47;4983085;28;20269;-76
2024/03/19 03:47:22;;;;;;;36.33;26.53;;;;;;;5.21;100.00;100874.31;4972381;28;20930;-76
2024/03/19 03:49:47;;;;;;;34.10;24.60;;;;;;;4.98;100.00;100881.25;4985675;28;20452;-76
2024/03/19 03:52:13;;;;;;;36.37;26.27;;;;;;;5.04;100.00;100877.94;4996550;28;20212;-76
2024/03/19 03:54:38;;;;;;;33.63;24.87;;;;;;;4.42;100.00;100773.75;4987745;28;20185;-76
2024/03/19 03:57:04;;;;;;;34.17;24.10;;;;;;;4.86;100.00;100917.91;4982083;28;20324;-76
2024/03/19 03:59:33;;;;;;;32.80;24.23;;;;;;;5.62;100.00;100967.50;4986957;28;20599;-76
2024/03/19 04:01:58;;;;;;;33.57;23.90;;;;;;;5.81;100.00;101072.84;4984619;28;20225;-76
2024/03/19 04:04:24;;;;;;;34.90;25.87;;;;;;;5.86;100.00;101038.59;4987768;28;20442;-76
2024/03/19 04:06:49;;;;;;;32.13;25.50;;;;;;;5.05;100.00;100934.59;4971127;28;20181;-76
2024/03/19 04:09:17;;;;;;;34.73;25.03;;;;;;;5.85;100.00;101068.88;4991625;28;20665;-76
2024/03/19 04:11:42;;;;;;;34.07;23.77;;;;;;;5.64;100.00;101050.69;4990351;28;20216;-76
2024/03/19 04:14:08;;;;;;;34.27;26.10;;;;;;;5.49;100.00;101083.38;4989604;28;20425;-76
2024/03/19 04:16:33;;;;;;;36.50;25.67;;;;;;;4.97;100.00;100954.81;4991304;28;20177;-76
2024/03/19 04:18:59;;;;;;;33.30;24.50;;;;;;;5.77;100.00;101060.84;4974533;28;20182;-76
2024/03/19 04:21:25;;;;;;;39.13;26.33;;;;;;;6.66;100.00;101248.59;4966094;28;20227;-76
2024/03/19 04:23:50;;;;;;;33.47;24.70;;;;;;;5.90;100.00;101118.94;4988128;28;20186;-76
2024/03/19 04:26:18;;;;;;;35.90;24.70;;;;;;;5.50;100.00;101101.03;4969100;28;20655;-76
2024/03/19 04:28:44;;;;;;;34.67;24.87;;;;;;;6.65;100.00;101273.56;4986915;28;20189;-76
2024/03/19 04:31:09;;;;;;;38.17;26.37;;;;;;;6.27;100.00;101209.16;4986712;28;20811;-76
2024/03/19 04:33:37;;;;;;;37.77;27.00;;;;;;;6.69;100.00;101242.94;4987443;28;20433;-76
2024/03/19 04:36:03;;;;;;;35.90;25.80;;;;;;;4.62;100.00;101034.66;4989868;28;20188;-76
2024/03/19 04:38:29;;;;;;;39.37;28.60;;;;;;;6.06;100.00;101168.81;4972300;28;20436;-76
2024/03/19 04:40:54;;;;;;;37.63;26.53;;;;;;;5.05;100.00;101057.72;4990088;28;20539;-76
2024/03/19 04:43:20;;;;;;;38.50;26.40;;;;;;;4.76;100.00;100927.81;4971243;28;20216;-76
2024/03/19 04:45:48;;;;;;;37.60;28.50;;;;;;;5.81;100.00;101216.59;4989163;28;20185;-76
2024/03/19 04:48:13;;;;;;;41.57;28.40;;;;;;;5.71;100.00;101106.75;4986392;28;20816;-76
2024/03/19 04:50:41;;;;;;;36.00;27.13;;;;;;;4.94;100.00;101028.72;4988925;28;20429;-76
2024/03/19 04:53:09;;;;;;;37.30;26.07;;;;;;;5.80;100.00;101161.69;4988220;28;20190;-76
2024/03/19 04:55:39;;;;;;;39.00;27.30;;;;;;;4.36;100.00;100896.53;4986119;28;20440;-76
2024/03/19 04:58:05;;;;;;;37.03;27.10;;;;;;;5.70;100.00;101102.44;4990170;28;20479;-76
2024/03/19 05:00:31;;;;;;;40.03;27.90;;;;;;;4.96;100.00;100936.38;4987610;28;20893;-76
2024/03/19 05:02:59;;;;;;;38.27;25.73;;;;;;;4.64;100.00;100971.59;4989597;28;20492;-76
2024/03/19 05:05:24;;;;;;;36.47;27.80;;;;;;;4.78;100.00;100923.19;4970187;28;20212;-76
2024/03/19 05:07:54;;;;;;;36.77;27.93;;;;;;;6.69;100.00;101228.78;4989203;28;20464;-76
2024/03/19 05:10:22;;;;;;;38.70;27.90;;;;;;;7.20;100.00;101403.75;4970579;28;20625;-76
2024/03/19 05:12:48;;;;;;;37.60;27.50;;;;;;;4.25;100.00;100906.44;4987097;28;20457;-76
2024/03/19 05:15:14;;;;;;;40.20;28.30;;;;;;;5.74;100.00;101122.41;4989127;28;20432;-76
2024/03/19 05:17:41;;;;;;;35.97;26.40;;;;;;;4.72;100.00;100947.75;4988284;28;20237;-76
2024/03/19 05:20:07;;;;;;;36.10;25.90;;;;;;;6.64;100.00;101260.41;4988865;28;20691;-76
2024/03/19 05:22:33;;;;;;;38.80;27.87;;;;;;;4.79;100.00;100882.31;4974795;28;20460;-76
2024/03/19 05:25:00;;;;;;;34.73;25.63;;;;;;;5.81;100.00;101032.91;4991025;28;20193;-76
2024/03/19 05:27:26;;;;;;;35.07;25.47;;;;;;;5.47;100.00;100966.47;4990464;28;20575;-76
2024/03/19 05:29:54;;;;;;;41.07;27.60;;;;;;;5.28;100.00;100935.66;4988682;28;20428;-76
2024/03/19 05:32:21;;;;;;;36.30;25.50;;;;;;;6.52;100.00;101198.59;4985587;28;20202;-76
2024/03/19 05:34:47;;;;;;;35.93;25.07;;;;;;;5.25;100.00;100967.06;4973867;28;20429;-76
2024/03/19 05:37:12;;;;;;;42.23;27.17;;;;;;;5.96;100.00;101129.00;4986880;28;20449;-76
2024/03/19 05:39:38;;;;;;;36.17;26.13;;;;;;;5.02;100.00;100933.06;4965723;28;20182;-76
2024/03/19 05:42:06;;;;;;;38.33;25.87;;;;;;;5.30;100.00;100952.31;4987580;28;20209;-76
2024/03/19 05:44:34;;;;;;;40.67;26.83;;;;;;;5.95;100.00;101098.03;4975558;28;20809;-76
2024/03/19 05:47:02;;;;;;;34.83;26.17;;;;;;;5.61;100.00;101056.34;4973006;28;20436;-76
2024/03/19 05:49:27;;;;;;;31.60;25.27;;;;;;;5.87;100.00;101076.69;4987000;28;20565;-77
2024/03/19 05:51:53;;;;;;;34.20;26.00;;;;;;;4.67;100.00;100894.22;4982368;28;20556;-77
2024/03/19 05:54:19;;;;;;;31.40;24.30;;;;;;;7.36;100.00;101282.84;4963617;28;20186;-76
2024/03/19 05:56:44;;;;;;;36.10;24.93;;;;;;;4.87;100.00;100945.31;4965632;28;20425;-76
2024/03/19 05:59:15;;;;;;;39.37;26.33;;;;;;;4.95;100.00;100894.84;4985639;28;20249;-76
2024/03/19 06:01:40;;;;;;;40.10;26.70;;;;;;;4.82;100.00;100865.22;4966252;28;20248;-76
2024/03/19 06:04:08;;;;;;;33.30;25.07;;;;;;;6.27;100.00;101173.69;4987231;28;20452;-76
2024/03/19 06:06:33;;;;;;;34.07;26.27;;;;;;;5.65;100.00;101046.19;4986068;28;20186;-76
2024/03/19 06:08:59;;;;;;;32.97;23.20;;;;;;;5.79;100.00;101063.38;4988878;28;20428;-76
2024/03/19 06:11:28;;;;;;;34.43;25.70;;;;;;;5.08;100.00;100956.34;4993564;28;20208;-76
2024/03/19 06:13:56;;;;;;;33.20;24.50;;;;;;;5.41;100.00;101082.34;4976888;28;20185;-76
2024/03/19 06:16:21;;;;;;;32.70;22.90;;;;;;;5.47;100.00;101077.38;4988140;28;20440;-76
2024/03/19 06:18:52;;;;;;;30.10;23.83;;;;;;;6.60;100.00;101309.72;4969383;28;20437;-76
2024/03/19 06:21:21;;;;;;;33.60;24.20;;;;;;;5.72;100.00;101078.31;4985441;28;20205;-76
2024/03/19 06:23:46;;;;;;;31.23;23.97;;;;;;;4.90;100.00;100991.00;4971737;28;20429;-76
2024/03/19 06:26:17;;;;;;;31.53;23.87;;;;;;;4.37;100.00;100882.25;4987354;28;20452;-77
2024/03/19 06:28:44;;;;;;;31.97;25.33;;;;;;;5.61;100.00;101056.34;4968533;28;21717;-77
2024/03/19 06:31:09;;;;;;;35.07;25.20;;;;;;;4.82;100.00;100924.50;4984788;28;20453;-76
2024/03/19 06:33:35;;;;;;;33.60;23.87;;;;;;;5.08;100.00;101041.44;4969082;28;20515;-76
2024/03/19 06:36:02;;;;;;;36.33;24.40;;;;;;;6.69;100.00;101218.09;4982082;28;20185;-76
2024/03/19 06:38:28;;;;;;;32.10;23.40;;;;;;;5.70;100.00;101165.44;4971536;28;20198;-77
2024/03/19 06:40:54;;;;;;;35.40;23.60;;;;;;;5.79;100.00;101169.84;4965287;28;20999;-76
2024/03/19 06:43:22;;;;;;;32.43;24.17;;;;;;;5.80;100.00;101167.00;4984482;28;20721;-76
2024/03/19 06:45:47;;;;;;;31.83;23.50;;;;;;;6.64;100.00;101313.72;4986349;28;21562;-76
2024/03/19 06:48:16;;;;;;;31.27;23.87;;;;;;;7.29;100.00;101393.06;4986499;28;20490;-76
2024/03/19 06:50:41;;;;;;;33.60;23.47;;;;;;;5.61;100.00;101106.91;4987227;28;20185;-76
2024/03/19 06:53:06;;;;;;;33.50;23.13;;;;;;;7.07;100.00;101367.84;4985497;28;20441;-77
2024/03/19 06:55:41;;;;;;;31.23;22.77;;;;;;;4.33;100.00;100844.56;4992098;28;20205;-77
2024/03/19 06:58:07;;;;;;;34.43;23.90;;;;;;;5.15;100.00;101044.28;4985549;28;20185;-77
2024/03/19 07:00:32;;;;;;;33.30;23.77;;;;;;;4.89;100.00;100949.47;4984360;28;20839;-76
2024/03/19 07:03:00;;;;;;;31.50;23.50;;;;;;;6.52;100.00;101199.41;4967438;28;20263;-77
2024/03/19 07:05:29;;;;;;;31.70;24.03;;;;;;;5.62;100.00;101148.47;4985956;28;20215;-77
2024/03/19 07:07:55;;;;;;;34.03;23.70;;;;;;;5.99;100.00;101191.75;4984250;28;20859;-76
2024/03/19 07:10:21;;;;;;;35.03;23.60;;;;;;;6.21;100.00;101182.34;4967366;28;20941;-76
2024/03/19 07:12:47;;;;;;;33.43;25.37;;;;;;;6.46;100.00;101196.56;4983744;28;20964;-77
2024/03/19 07:15:14;;;;;;;34.83;24.90;;;;;;;5.69;100.00;101078.63;4988873;28;20436;-76
2024/03/19 07:17:49;;;;;;;31.83;23.00;;;;;;;6.02;100.00;101141.69;4984490;28;20241;-76
2024/03/19 07:20:18;;;;;;;32.10;24.13;;;;;;;7.07;100.00;101224.63;4984590;28;20804;-77
2024/03/19 07:22:44;;;;;;;35.53;24.37;;;;;;;6.72;100.00;101204.44;4984872;28;20480;-77
2024/03/19 07:25:10;;;;;;;35.10;24.30;;;;;;;5.48;100.00;101071.06;4985745;28;20429;-76
2024/03/19 07:27:41;;;;;;;35.20;22.87;;;;;;;6.50;100.00;101201.41;4986495;28;20459;-77
2024/03/19 07:30:17;;;;;;;35.80;23.90;;;;;;;5.62;100.00;100956.03;4966401;28;20441;-77
2024/03/19 07:32:45;;;;;;;35.40;24.77;;;;;;;5.82;100.00;101042.56;4970191;28;20977;-77
2024/03/19 07:35:11;;;;;;;30.20;22.43;;;;;;;6.40;100.00;101138.59;4985496;28;20817;-77
2024/03/19 07:37:38;;;;;;;34.03;22.40;;;;;;;6.50;100.00;101174.75;4983863;28;20444;-77
2024/03/19 07:40:09;;;;;;;34.13;22.40;;;;;;;6.06;100.00;101126.19;4983183;28;20427;-77
2024/03/19 07:42:38;;;;;;;31.00;22.87;;;;;;;5.72;100.00;101007.28;4973543;28;20476;-77
2024/03/19 07:45:05;;;;;;;33.70;22.10;;;;;;;6.20;100.00;101136.22;4991669;28;20929;-77
2024/03/19 07:47:31;;;;;;;30.23;21.53;;;;;;;4.45;100.00;100858.41;4990937;22;20524;-76
2024/03/19 07:49:57;;;;;;;33.87;21.90;;;;;;;6.22;100.00;101141.38;5028086;28;20446;-75
2024/03/19 07:52:22;;;;;;;30.07;20.27;;;;;;;5.23;100.00;100943.28;5015838;28;20455;-75
2024/03/19 07:54:48;;;;;;;29.00;20.30;;;;;;;5.18;100.00;100980.19;5013982;28;20186;-75
2024/03/19 07:57:13;;;;;;;27.13;20.80;;;;;;;6.67;100.00;101263.56;5015349;28;20183;-75
2024/03/19 07:59:39;;;;;;;36.00;21.23;;;;;;;6.53;100.00;101211.72;5010096;28;20181;-75
2024/03/19 08:02:04;;;;;;;28.77;19.67;;;;;;;5.36;100.00;101041.25;5004589;28;20223;-75
2024/03/19 08:04:31;;;;;;;29.97;20.07;;;;;;;5.17;100.00;101021.03;5011133;28;20196;-75
2024/03/19 08:06:56;;;;;;;30.43;21.17;;;;;;;6.42;100.00;101237.84;4983531;28;20185;-75
2024/03/19 08:09:22;;;;;;;26.70;18.47;;;;;;;8.46;100.00;101601.28;5005603;28;20490;-75
2024/03/19 08:11:48;;;;;;;29.07;19.17;;;;;;;6.52;100.00;101252.72;5012313;28;20214;-75
2024/03/19 08:14:13;;;;;;;29.20;19.87;;;;;;;6.38;100.00;101265.81;5009939;28;20650;-75
2024/03/19 08:16:39;;;;;;;34.67;18.43;;;;;;;5.52;100.00;101070.56;5005704;28;20205;-75
2024/03/19 08:19:06;;;;;;;31.40;18.60;;;;;;;7.21;100.00;101389.41;5011608;28;20187;-75
2024/03/19 08:21:32;;;;;;;30.60;19.47;;;;;;;6.28;100.00;101207.34;5010960;28;20218;-75
2024/03/19 08:23:57;;;;;;;27.77;19.80;;;;;;;8.01;100.00;101524.19;4993013;28;20436;-76
2024/03/19 08:26:23;;;;;;;27.30;19.40;;;;;;;5.92;100.00;101167.56;5011542;28;20188;-75
2024/03/19 08:28:48;;;;;;;31.73;19.27;;;;;;;8.64;100.00;101616.31;5006301;28;20196;-75
2024/03/19 08:31:14;;;;;;;29.63;19.37;;;;;;;7.32;100.00;101446.97;5010238;28;20293;-75
2024/03/19 08:33:40;;;;;;;26.47;17.83;;;;;;;7.95;100.00;101469.59;5012709;28;20188;-75
2024/03/19 08:36:06;;;;;;;31.77;20.73;;;;;;;6.60;100.00;101310.56;5006091;28;20193;-76
2024/03/19 08:38:32;;;;;;;30.87;18.83;;;;;;;6.45;100.00;101325.47;5007570;28;20569;-75
2024/03/19 08:41:02;;;;;;;31.73;19.00;;;;;;;7.36;100.00;101439.47;5009254;28;20443;-75
2024/03/19 08:43:28;;;;;;;28.05;19.05;;;;;;;6.98;100.00;101369.66;5009744;28;20517;-75
2024/03/19 08:45:53;;;;;;;27.63;18.90;;;;;;;6.82;100.00;101361.59;5009626;28;20281;-75
2024/03/19 08:48:22;;;;;;;27.17;17.97;;;;;;;6.29;100.00;101262.28;5010348;28;20445;-75
2024/03/19 08:50:51;;;;;;;28.37;19.30;;;;;;;8.00;100.00;101575.97;5008854;28;20300;-75
2024/03/19 08:53:17;;;;;;;26.07;17.67;;;;;;;7.64;100.00;101525.47;5010944;28;20430;-75
2024/03/19 08:55:42;;;;;;;31.67;19.30;;;;;;;7.13;100.00;101474.75;5011335;28;20962;-75
2024/03/19 08:58:09;;;;;;;27.90;16.93;;;;;;;6.19;100.00;101283.75;5008853;28;20660;-75
2024/03/19 09:00:38;;;;;;;27.93;18.27;;;;;;;8.29;100.00;101645.00;5012278;28;20559;-75
2024/03/19 09:03:07;;;;;;;33.40;18.93;;;;;;;6.65;100.00;101345.53;5009565;28;20463;-76
2024/03/19 09:05:33;;;;;;;29.10;18.53;;;;;;;8.37;100.00;101693.97;5009130;28;20431;-75
2024/03/19 09:07:58;;;;;;;29.17;18.17;;;;;;;6.69;100.00;101392.22;5012273;28;20434;-76
2024/03/19 09:10:24;;;;;;;31.50;17.50;;;;;;;8.53;100.00;101709.25;5009574;28;20177;-75
2024/03/19 09:12:49;;;;;;;25.00;17.17;;;;;;;9.15;100.00;101797.13;5014019;28;20208;-75
2024/03/19 09:15:15;;;;;;;25.13;16.93;;;;;;;7.50;100.00;101531.44;5013486;28;20193;-75
2024/03/19 09:17:40;;;;;;;28.10;16.53;;;;;;;8.02;100.00;101633.56;5006924;28;20666;-75
2024/03/19 09:20:10;;;;;;;32.17;16.80;;;;;;;9.12;100.00;101775.22;5010802;28;20228;-75
2024/03/19 09:22:35;;;;;;;26.33;16.10;;;;;;;7.92;100.00;101598.97;5006253;28;20283;-75
2024/03/19 09:25:02;;;;;;;25.10;16.40;;;;;;;9.52;100.00;101785.09;5006114;28;20444;-75
2024/03/19 09:27:27;;;;;;;23.23;16.17;;;;;;;6.15;100.00;101278.88;5002294;28;20542;-75
2024/03/19 09:29:53;;;;;;;23.13;16.10;;;;;;;7.27;100.00;101459.97;4985715;28;20424;-75
2024/03/19 09:32:19;;;;;;;25.23;15.40;;;;;;;8.03;100.00;101592.50;5013744;28;20444;-76
2024/03/19 09:34:45;;;;;;;25.00;16.63;;;;;;;9.67;100.00;101857.56;5012057;28;20185;-76
2024/03/19 09:37:10;;;;;;;25.70;15.80;;;;;;;7.18;100.00;101412.91;4989672;28;21014;-75
2024/03/19 09:39:36;;;;;;;23.63;14.23;;;;;;;8.25;100.00;101636.47;5001736;28;20188;-75
2024/03/19 09:42:10;;;;;;;25.43;15.70;;;;;;;9.02;100.00;101728.00;5006438;28;20319;-75
2024/03/19 09:44:36;;;;;;;25.33;15.13;;;;;;;7.01;100.00;101382.69;5010289;28;20184;-75
2024/03/19 09:47:05;;;;;;;24.17;14.93;;;;;;;9.22;100.00;101741.06;5002934;28;20433;-75
2024/03/19 09:49:35;;;;;;;23.90;14.77;;;;;;;9.24;100.00;101777.38;5007814;28;20444;-75
2024/03/19 09:52:03;;;;;;;25.27;15.47;;;;;;;9.72;100.00;101839.16;5009877;28;20431;-75
2024/03/19 09:54:29;;;;;;;22.27;14.73;;;;;;;9.33;100.00;101826.41;4990726;28;20435;-75
2024/03/19 09:56:56;;;;;;;26.70;15.27;;;;;;;7.90;100.00;101542.22;5007214;28;20439;-75
2024/03/19 09:59:22;;;;;;;25.83;14.00;;;;;;;7.76;100.00;101556.22;5008370;28;20455;-75
2024/03/19 10:01:48;;;;;;;23.37;13.73;;;;;;;7.41;100.00;101435.31;5004710;28;20503;-75
2024/03/19 10:04:19;;;;;;;21.10;13.83;;;;;;;7.41;100.00;101455.84;5009978;28;20185;-75
2024/03/19 10:06:45;;;;;;;22.83;14.10;;;;;;;8.70;100.00;101691.38;4982423;28;20922;-75
2024/03/19 10:09:10;;;;;;;18.50;11.87;;;;;;;7.72;100.00;101554.00;5009184;28;20515;-75
2024/03/19 10:11:36;;;;;;;21.43;13.43;;;;;;;7.46;100.00;101496.19;4986401;28;20458;-75
2024/03/19 10:14:05;;;;;;;21.87;12.07;;;;;;;7.26;100.00;101487.63;4986774;28;20177;-75
2024/03/19 10:16:30;;;;;;;21.80;12.80;;;;;;;8.63;100.00;101709.09;5012607;28;20940;-75
2024/03/19 10:18:59;;;;;;;19.30;12.70;;;;;;;8.49;100.00;101705.22;5007312;28;20439;-74
2024/03/19 10:21:26;;;;;;;21.30;13.20;;;;;;;7.78;100.00;101590.75;4983951;28;20205;-74
2024/03/19 10:23:51;;;;;;;20.10;11.50;;;;;;;8.19;100.00;101668.34;5006335;28;20503;-74
2024/03/19 10:26:18;;;;;;;22.67;12.37;;;;;;;9.23;100.00;101842.66;5005103;28;20440;-73
2024/03/19 10:28:45;;;;;;;23.17;12.40;;;;;;;9.49;100.00;101844.34;5002915;28;20248;-74
2024/03/19 10:31:11;;;;;;;19.90;11.50;;;;;;;7.93;100.00;101591.81;5008598;28;20991;-74
2024/03/19 10:33:37;;;;;;;23.77;12.20;;;;;;;8.75;100.00;101739.03;5007100;28;20447;-74
2024/03/19 10:36:03;;;;;;;20.37;11.20;;;;;;;10.05;100.00;101909.63;5014619;28;20231;-74
2024/03/19 10:38:29;;;;;;;17.13;11.13;;;;;;;10.10;100.00;101939.44;4982838;28;20673;-74
2024/03/19 10:40:58;;;;;;;21.40;11.70;;;;;;;9.70;100.00;101882.16;5009520;28;20528;-74
2024/03/19 10:43:25;;;;;;;16.90;10.60;;;;;;;10.16;100.00;101929.88;5004397;28;20463;-74
2024/03/19 10:45:52;;;;;;;20.30;11.20;;;;;;;8.85;100.00;101691.53;5011655;28;20425;-74
2024/03/19 10:48:18;;;;;;;20.07;11.47;;;;;;;8.56;100.00;101694.69;5006163;28;20436;-74
2024/03/19 10:50:47;;;;;;;17.43;10.50;;;;;;;9.57;100.00;101863.06;5006843;28;20443;-74
2024/03/19 10:53:27;;;;;;;19.03;9.73;;;;;;;11.52;100.00;102207.31;5010168;28;20176;-74
2024/03/19 10:55:58;;;;;;;20.33;9.80;;;;;;;8.53;100.00;101729.78;5009383;28;20578;-73
2024/03/19 10:58:23;;;;;;;19.20;10.20;;;;;;;8.91;100.00;101805.97;5001408;28;20433;-74
2024/03/19 11:00:51;;;;;;;14.37;8.23;;;;;;;9.61;100.00;101888.53;5006165;28;20799;-74
2024/03/19 11:03:18;;;;;;;15.47;8.73;;;;;;;8.40;100.00;101711.56;5001895;28;20240;-73
2024/03/19 11:05:50;;;;;;;14.43;8.37;;;;;;;11.49;100.00;102226.47;5004687;28;20435;-74
2024/03/19 11:08:16;;;;;;;17.53;8.67;;;;;;;9.07;100.00;101906.84;5009364;28;20777;-73